createdAt,value
2019-06-01T00:00:49.009Z,12.55
2019-06-01T00:01:49.030Z,12.58
2019-06-01T00:02:55.445Z,12.59
2019-06-01T00:03:48.985Z,12.62
2019-06-01T00:05:48.969Z,12.65
2019-06-01T00:06:49.061Z,12.66
2019-06-01T00:07:49.011Z,12.68
2019-06-01T00:08:49.315Z,12.70
2019-06-01T00:10:49.480Z,12.72
2019-06-01T00:11:49.689Z,12.74
2019-06-01T00:12:49.558Z,12.76
2019-06-01T00:13:49.669Z,12.77
2019-06-01T00:15:50.257Z,12.80
2019-06-01T00:16:50.347Z,12.82
2019-06-01T00:17:50.023Z,12.84
2019-06-01T00:18:50.268Z,12.85
2019-06-01T00:20:48.975Z,12.85
2019-06-01T00:21:49.464Z,12.86
2019-06-01T00:22:49.501Z,12.87
2019-06-01T00:23:48.977Z,12.90
2019-06-01T00:25:49.030Z,12.94
2019-06-01T00:26:49.892Z,12.96
2019-06-01T00:27:49.017Z,12.98
2019-06-01T00:28:49.974Z,13.00
2019-06-01T00:30:49.877Z,13.02
2019-06-01T00:31:49.899Z,13.02
2019-06-01T00:32:49.390Z,13.03
2019-06-01T00:33:49.594Z,13.04
2019-06-01T00:35:49.540Z,13.03
2019-06-01T00:36:49.660Z,13.03
2019-06-01T00:37:50.154Z,13.02
2019-06-01T00:38:49.929Z,13.01
2019-06-01T00:40:49.933Z,13.00
2019-06-01T00:41:50.142Z,12.99
2019-06-01T00:42:50.197Z,12.98
2019-06-01T00:43:50.383Z,12.97
2019-06-01T00:45:49.008Z,12.94
2019-06-01T00:46:49.018Z,12.92
2019-06-01T00:47:49.059Z,12.90
2019-06-01T00:48:49.986Z,12.88
2019-06-01T00:51:49.138Z,12.83
2019-06-01T00:52:49.293Z,12.80
2019-06-01T00:53:49.618Z,12.77
2019-06-01T00:54:49.551Z,12.73
2019-06-01T00:56:49.684Z,12.67
2019-06-01T00:57:49.773Z,12.64
2019-06-01T00:58:49.829Z,12.61
2019-06-01T00:59:50.017Z,12.57
2019-06-01T01:02:50.240Z,12.48
2019-06-01T01:03:50.101Z,12.45
2019-06-01T01:04:50.334Z,12.42
2019-06-01T01:05:49.032Z,12.38
2019-06-01T01:07:49.046Z,12.32
2019-06-01T01:08:49.100Z,12.29
2019-06-01T01:09:49.056Z,12.25
2019-06-01T01:10:49.141Z,12.22
2019-06-01T01:12:49.088Z,12.17
2019-06-01T01:13:49.246Z,12.13
2019-06-01T01:14:49.231Z,12.10
2019-06-01T01:15:49.344Z,12.08
2019-06-01T01:18:49.759Z,11.99
2019-06-01T01:19:49.674Z,11.98
2019-06-01T01:20:50.024Z,11.94
2019-06-01T01:21:49.924Z,11.92
2019-06-01T01:23:50.247Z,11.87
2019-06-01T01:24:50.412Z,11.84
2019-06-01T01:25:50.413Z,11.82
2019-06-01T01:26:49.074Z,11.80
2019-06-01T01:28:49.097Z,11.74
2019-06-01T01:29:49.085Z,11.72
2019-06-01T01:31:04.661Z,11.70
2019-06-01T01:31:49.213Z,11.69
2019-06-01T01:34:49.467Z,11.59
2019-06-01T01:35:49.693Z,11.57
2019-06-01T01:36:49.691Z,11.55
2019-06-01T01:37:50.013Z,11.53
2019-06-01T01:39:50.131Z,11.49
2019-06-01T01:40:50.074Z,11.46
2019-06-01T01:41:50.018Z,11.43
2019-06-01T01:42:50.474Z,11.41
2019-06-01T01:44:49.070Z,11.37
2019-06-01T01:45:49.065Z,11.34
2019-06-01T01:46:49.087Z,11.34
2019-06-01T01:47:49.455Z,11.30
2019-06-01T01:50:50.151Z,11.24
2019-06-01T01:51:50.322Z,11.22
2019-06-01T01:52:49.090Z,11.21
2019-06-01T01:53:50.458Z,11.19
2019-06-01T01:55:49.091Z,11.16
2019-06-01T01:56:49.939Z,11.13
2019-06-01T01:57:49.103Z,11.12
2019-06-01T01:58:50.250Z,11.12
2019-06-01T02:01:50.304Z,11.05
2019-06-01T02:02:49.105Z,11.03
2019-06-01T02:03:49.107Z,11.02
2019-06-01T02:04:49.103Z,11.00
2019-06-01T02:06:49.160Z,10.96
2019-06-01T02:07:49.146Z,10.97
2019-06-01T02:08:49.145Z,10.94
2019-06-01T02:09:49.113Z,10.93
2019-06-01T02:11:49.169Z,10.92
2019-06-01T02:12:49.096Z,10.91
2019-06-01T02:13:49.136Z,10.90
2019-06-01T02:14:49.110Z,10.88
2019-06-01T02:16:49.105Z,10.86
2019-06-01T02:17:49.098Z,10.85
2019-06-01T02:18:49.133Z,10.84
2019-06-01T02:19:49.099Z,10.82
2019-06-01T02:22:49.104Z,10.80
2019-06-01T02:23:49.123Z,10.79
2019-06-01T02:24:49.165Z,10.77
2019-06-01T02:25:49.137Z,10.76
2019-06-01T02:27:49.145Z,10.74
2019-06-01T02:28:49.136Z,10.73
2019-06-01T02:29:49.134Z,10.73
2019-06-01T02:30:49.169Z,10.72
2019-06-01T02:32:49.129Z,10.70
2019-06-01T02:33:49.139Z,10.69
2019-06-01T02:34:49.177Z,10.68
2019-06-01T02:35:49.154Z,10.67
2019-06-01T02:37:49.182Z,10.66
2019-06-01T02:38:49.143Z,10.67
2019-06-01T02:39:49.207Z,10.65
2019-06-01T02:40:49.157Z,10.64
2019-06-01T02:42:49.147Z,10.63
2019-06-01T02:43:49.131Z,10.61
2019-06-01T02:44:49.215Z,10.61
2019-06-01T02:45:49.142Z,10.58
2019-06-01T02:47:49.163Z,10.58
2019-06-01T02:48:49.168Z,10.56
2019-06-01T02:49:49.167Z,10.55
2019-06-01T02:50:49.166Z,10.55
2019-06-01T02:52:49.224Z,10.52
2019-06-01T02:53:49.187Z,10.51
2019-06-01T02:54:49.154Z,10.49
2019-06-01T02:55:49.183Z,10.49
2019-06-01T02:57:49.178Z,10.46
2019-06-01T02:58:49.175Z,10.46
2019-06-01T02:59:49.226Z,10.45
2019-06-01T03:00:49.186Z,10.43
2019-06-01T03:03:49.179Z,10.41
2019-06-01T03:04:49.178Z,10.39
2019-06-01T03:05:49.167Z,10.38
2019-06-01T03:06:49.208Z,10.38
2019-06-01T03:08:49.171Z,10.34
2019-06-01T03:09:49.174Z,10.35
2019-06-01T03:10:49.174Z,10.33
2019-06-01T03:11:49.199Z,10.31
2019-06-01T03:13:49.207Z,10.29
2019-06-01T03:14:49.219Z,10.29
2019-06-01T03:15:49.203Z,10.28
2019-06-01T03:16:49.204Z,10.27
2019-06-01T03:18:49.201Z,10.26
2019-06-01T03:19:49.218Z,10.25
2019-06-01T03:20:49.217Z,10.24
2019-06-01T03:21:49.219Z,10.23
2019-06-01T03:23:49.228Z,10.22
2019-06-01T03:24:49.245Z,10.21
2019-06-01T03:25:49.212Z,10.20
2019-06-01T03:26:49.217Z,10.20
2019-06-01T03:28:49.207Z,10.19
2019-06-01T03:29:49.233Z,10.18
2019-06-01T03:30:49.226Z,10.18
2019-06-01T03:31:49.214Z,10.18
2019-06-01T03:34:49.217Z,10.18
2019-06-01T03:35:49.245Z,10.18
2019-06-01T03:36:49.214Z,10.19
2019-06-01T03:37:49.225Z,10.21
2019-06-01T03:39:49.219Z,10.22
2019-06-01T03:40:49.220Z,10.21
2019-06-01T03:41:49.327Z,10.21
2019-06-01T03:42:49.209Z,10.21
2019-06-01T03:44:49.225Z,10.22
2019-06-01T03:45:49.237Z,10.22
2019-06-01T03:46:49.221Z,10.24
2019-06-01T03:47:49.241Z,10.26
2019-06-01T03:49:49.268Z,10.27
2019-06-01T03:50:49.216Z,10.27
2019-06-01T03:51:49.220Z,10.28
2019-06-01T03:52:49.262Z,10.28
2019-06-01T03:54:49.248Z,10.29
2019-06-01T03:55:49.289Z,10.29
2019-06-01T03:56:49.247Z,10.29
2019-06-01T03:57:49.236Z,10.28
2019-06-01T03:59:49.282Z,10.31
2019-06-01T04:00:49.266Z,10.33
2019-06-01T04:01:49.248Z,10.32
2019-06-01T04:02:49.251Z,10.33
2019-06-01T04:04:49.287Z,10.36
2019-06-01T04:05:49.262Z,10.36
2019-06-01T04:06:49.275Z,10.37
2019-06-01T04:07:49.264Z,10.39
2019-06-01T04:09:49.267Z,10.42
2019-06-01T04:10:49.262Z,10.43
2019-06-01T04:11:49.250Z,10.44
2019-06-01T04:12:49.268Z,10.46
2019-06-01T04:14:49.279Z,10.50
2019-06-01T04:15:49.269Z,10.51
2019-06-01T04:16:49.306Z,10.53
2019-06-01T04:17:49.273Z,10.54
2019-06-01T04:19:49.306Z,10.57
2019-06-01T04:20:49.269Z,10.61
2019-06-01T04:21:49.286Z,10.64
2019-06-01T04:22:49.299Z,10.65
2019-06-01T04:24:49.280Z,10.72
2019-06-01T04:25:49.285Z,10.73
2019-06-01T04:26:49.281Z,10.75
2019-06-01T04:27:49.277Z,10.78
2019-06-01T04:29:49.290Z,10.84
2019-06-01T04:30:49.303Z,10.86
2019-06-01T04:31:49.311Z,10.88
2019-06-01T04:32:50.442Z,10.92
2019-06-01T04:34:49.302Z,10.98
2019-06-01T04:35:49.290Z,11.02
2019-06-01T04:36:49.306Z,11.06
2019-06-01T04:37:49.310Z,11.10
2019-06-01T04:40:49.361Z,11.23
2019-06-01T04:41:49.377Z,11.27
2019-06-01T04:42:49.325Z,11.33
2019-06-01T04:43:49.339Z,11.36
2019-06-01T04:45:49.310Z,11.45
2019-06-01T04:46:49.354Z,11.49
2019-06-01T04:47:49.312Z,11.55
2019-06-01T04:48:49.329Z,11.59
2019-06-01T04:50:49.333Z,11.71
2019-06-01T04:51:49.299Z,11.75
2019-06-01T04:52:49.311Z,11.80
2019-06-01T04:53:49.336Z,11.84
2019-06-01T04:55:49.313Z,11.94
2019-06-01T04:56:49.307Z,12.00
2019-06-01T04:57:49.327Z,12.05
2019-06-01T04:58:49.309Z,12.10
2019-06-01T05:01:49.382Z,12.23
2019-06-01T05:03:02.221Z,12.27
2019-06-01T05:03:49.326Z,12.31
2019-06-01T05:04:49.339Z,12.37
2019-06-01T05:06:49.320Z,12.49
2019-06-01T05:07:49.337Z,12.55
2019-06-01T05:08:49.354Z,12.62
2019-06-01T05:09:49.356Z,12.69
2019-06-01T05:11:49.361Z,12.84
2019-06-01T05:12:49.343Z,12.90
2019-06-01T05:13:49.376Z,12.97
2019-06-01T05:14:49.324Z,13.03
2019-06-01T05:16:49.359Z,13.15
2019-06-01T05:17:49.381Z,13.23
2019-06-01T05:18:49.429Z,13.27
2019-06-01T05:19:49.335Z,13.33
2019-06-01T05:22:49.330Z,13.50
2019-06-01T05:23:49.350Z,13.55
2019-06-01T05:24:49.352Z,13.59
2019-06-01T05:25:49.339Z,13.66
2019-06-01T05:27:49.351Z,13.74
2019-06-01T05:28:49.370Z,13.78
2019-06-01T05:29:49.419Z,13.82
2019-06-01T05:30:49.342Z,13.87
2019-06-01T05:33:49.379Z,13.97
2019-06-01T05:34:49.383Z,13.98
2019-06-01T05:35:49.385Z,14.00
2019-06-01T05:36:49.397Z,14.02
2019-06-01T05:39:49.367Z,14.12
2019-06-01T05:40:49.371Z,14.15
2019-06-01T05:41:49.384Z,14.17
2019-06-01T05:42:49.373Z,14.18
2019-06-01T05:45:49.377Z,14.29
2019-06-01T05:46:49.399Z,14.31
2019-06-01T05:47:49.361Z,14.34
2019-06-01T05:48:49.378Z,14.38
2019-06-01T05:50:49.421Z,14.41
2019-06-01T05:51:49.381Z,14.45
2019-06-01T05:52:49.387Z,14.46
2019-06-01T05:53:49.407Z,14.51
2019-06-01T05:55:49.421Z,14.56
2019-06-01T05:56:49.411Z,14.59
2019-06-01T05:57:49.379Z,14.66
2019-06-01T05:58:49.383Z,14.71
2019-06-01T06:00:49.407Z,14.76
2019-06-01T06:01:49.392Z,14.81
2019-06-01T06:02:49.446Z,14.84
2019-06-01T06:03:49.423Z,14.84
2019-06-01T06:05:49.402Z,14.95
2019-06-01T06:06:49.391Z,14.99
2019-06-01T06:07:49.422Z,15.02
2019-06-01T06:08:49.436Z,15.10
2019-06-01T06:10:49.410Z,15.19
2019-06-01T06:11:53.178Z,15.22
2019-06-01T06:12:49.440Z,15.26
2019-06-01T06:13:49.434Z,15.33
2019-06-01T06:16:49.435Z,15.44
2019-06-01T06:17:49.406Z,15.47
2019-06-01T06:18:49.424Z,15.49
2019-06-01T06:19:49.424Z,15.54
2019-06-01T06:21:49.447Z,15.61
2019-06-01T06:22:49.480Z,15.64
2019-06-01T06:23:49.425Z,15.69
2019-06-01T06:24:49.429Z,15.72
2019-06-01T06:26:49.445Z,15.79
2019-06-01T06:27:49.452Z,15.81
2019-06-01T06:28:49.471Z,15.86
2019-06-01T06:29:49.451Z,15.91
2019-06-01T06:31:49.454Z,15.96
2019-06-01T06:32:49.442Z,16.02
2019-06-01T06:33:56.750Z,16.06
2019-06-01T06:34:49.487Z,16.13
2019-06-01T06:36:49.440Z,16.23
2019-06-01T06:37:49.466Z,16.29
2019-06-01T06:38:49.459Z,16.33
2019-06-01T06:39:49.478Z,16.36
2019-06-01T06:41:49.506Z,16.45
2019-06-01T06:42:49.482Z,16.49
2019-06-01T06:43:49.448Z,16.48
2019-06-01T06:44:49.432Z,16.53
2019-06-01T06:46:49.454Z,16.55
2019-06-01T06:47:49.475Z,16.58
2019-06-01T06:48:49.467Z,16.62
2019-06-01T06:49:49.465Z,16.63
2019-06-01T06:52:49.516Z,16.71
2019-06-01T06:53:49.499Z,16.74
2019-06-01T06:54:49.472Z,16.75
2019-06-01T06:55:49.503Z,16.78
2019-06-01T06:57:49.523Z,16.81
2019-06-01T06:58:49.484Z,16.85
2019-06-01T06:59:49.511Z,16.87
2019-06-01T07:00:49.478Z,16.93
2019-06-01T07:02:49.543Z,17.01
2019-06-01T07:03:49.486Z,17.02
2019-06-01T07:04:49.461Z,17.05
2019-06-01T07:05:49.516Z,17.06
2019-06-01T07:07:49.480Z,17.15
2019-06-01T07:08:49.479Z,17.20
2019-06-01T07:09:49.513Z,17.23
2019-06-01T07:10:49.491Z,17.28
2019-06-01T07:12:49.530Z,17.36
2019-06-01T07:13:49.504Z,17.35
2019-06-01T07:14:49.501Z,17.42
2019-06-01T07:15:49.492Z,17.46
2019-06-01T07:17:49.509Z,17.53
2019-06-01T07:18:49.515Z,17.60
2019-06-01T07:19:49.550Z,17.63
2019-06-01T07:20:49.546Z,17.65
2019-06-01T07:22:49.515Z,17.76
2019-06-01T07:23:49.537Z,17.80
2019-06-01T07:24:49.711Z,17.83
2019-06-01T07:25:49.613Z,17.84
2019-06-01T07:28:49.541Z,17.90
2019-06-01T07:29:49.539Z,17.92
2019-06-01T07:30:50.451Z,17.92
2019-06-01T07:31:49.561Z,17.90
2019-06-01T07:33:49.530Z,18.00
2019-06-01T07:34:49.510Z,18.04
2019-06-01T07:35:49.543Z,18.08
2019-06-01T07:36:49.537Z,18.15
2019-06-01T07:37:49.541Z,18.21
2019-06-01T07:39:49.552Z,18.32
2019-06-01T07:40:49.552Z,18.36
2019-06-01T07:41:49.575Z,18.40
2019-06-01T07:42:49.544Z,18.46
2019-06-01T07:44:49.591Z,18.56
2019-06-01T07:45:49.528Z,18.64
2019-06-01T07:46:49.545Z,18.70
2019-06-01T07:47:49.574Z,18.73
2019-06-01T07:49:49.537Z,18.85
2019-06-01T07:50:49.559Z,18.91
2019-06-01T07:51:49.620Z,18.95
2019-06-01T07:52:49.543Z,19.04
2019-06-01T07:54:49.590Z,19.13
2019-06-01T07:55:49.551Z,19.18
2019-06-01T07:56:49.581Z,19.22
2019-06-01T07:57:49.552Z,19.30
2019-06-01T08:00:49.592Z,19.45
2019-06-01T08:01:49.616Z,19.50
2019-06-01T08:02:49.591Z,19.57
2019-06-01T08:03:49.569Z,19.63
2019-06-01T08:05:49.596Z,19.73
2019-06-01T08:06:49.612Z,19.83
2019-06-01T08:07:49.585Z,19.86
2019-06-01T08:08:49.583Z,19.90
2019-06-01T08:11:49.584Z,20.07
2019-06-01T08:12:49.566Z,20.15
2019-06-01T08:13:49.591Z,20.22
2019-06-01T08:14:49.610Z,20.28
2019-06-01T08:16:49.589Z,20.42
2019-06-01T08:17:49.581Z,20.53
2019-06-01T08:18:52.979Z,20.64
2019-06-01T08:19:51.853Z,20.73
2019-06-01T08:22:49.591Z,21.03
2019-06-01T08:23:49.618Z,21.16
2019-06-01T08:24:49.607Z,21.30
2019-06-01T08:25:49.588Z,21.41
2019-06-01T08:27:49.611Z,21.61
2019-06-01T08:28:49.604Z,21.75
2019-06-01T08:29:49.621Z,21.91
2019-06-01T08:30:49.622Z,22.02
2019-06-01T08:32:49.633Z,22.31
2019-06-01T08:33:49.613Z,22.45
2019-06-01T08:34:49.608Z,22.56
2019-06-01T08:35:49.617Z,22.68
2019-06-01T08:37:49.637Z,22.80
2019-06-01T08:38:49.623Z,22.96
2019-06-01T08:39:49.653Z,23.06
2019-06-01T08:40:49.642Z,23.19
2019-06-01T08:42:49.625Z,23.36
2019-06-01T08:43:49.619Z,23.49
2019-06-01T08:44:49.616Z,23.53
2019-06-01T08:45:49.678Z,23.60
2019-06-01T08:47:49.704Z,23.64
2019-06-01T08:48:49.626Z,23.66
2019-06-01T08:49:49.653Z,23.62
2019-06-01T08:50:49.641Z,23.75
2019-06-01T08:52:49.630Z,24.00
2019-06-01T08:53:49.623Z,24.06
2019-06-01T09:32:34.312Z,25.42
2019-06-01T09:33:35.096Z,25.50
2019-06-01T09:36:33.171Z,25.72
2019-06-01T09:37:33.178Z,25.72
2019-06-01T09:38:33.780Z,25.70
2019-06-01T09:39:33.244Z,25.70
2019-06-01T09:41:33.185Z,25.84
2019-06-01T09:42:33.436Z,25.92
2019-06-01T09:43:33.236Z,26.00
2019-06-01T09:44:33.590Z,26.13
2019-06-01T09:47:33.311Z,25.95
2019-06-01T09:48:33.588Z,25.80
2019-06-01T09:49:34.082Z,25.89
2019-06-01T09:50:33.533Z,25.76
2019-06-01T09:52:33.418Z,25.96
2019-06-01T09:53:34.472Z,26.09
2019-06-01T09:54:34.563Z,26.18
2019-06-01T09:55:34.515Z,26.18
2019-06-01T09:57:34.177Z,26.55
2019-06-01T09:58:34.574Z,26.75
2019-06-01T09:59:34.037Z,26.79
2019-06-01T10:00:34.707Z,26.85
2019-06-01T10:03:34.457Z,26.90
2019-06-01T10:04:34.373Z,26.98
2019-06-01T10:05:34.689Z,27.16
2019-06-01T10:06:34.410Z,27.35
2019-06-01T10:08:34.336Z,27.46
2019-06-01T10:09:33.636Z,27.39
2019-06-01T10:10:33.935Z,27.01
2019-06-01T10:11:34.305Z,26.69
2019-06-01T10:14:34.165Z,25.71
2019-06-01T10:15:34.334Z,25.90
2019-06-01T10:16:34.420Z,25.92
2019-06-01T10:17:33.648Z,25.95
2019-06-01T10:19:33.226Z,26.37
2019-06-01T10:20:33.281Z,26.61
2019-06-01T10:21:33.932Z,26.82
2019-06-01T10:22:33.322Z,27.02
2019-06-01T10:24:33.299Z,27.40
2019-06-01T10:25:34.448Z,27.62
2019-06-01T10:26:34.396Z,27.80
2019-06-01T10:27:34.465Z,27.94
2019-06-01T10:29:34.374Z,27.70
2019-06-01T10:30:33.902Z,27.76
2019-06-01T10:31:34.564Z,27.94
2019-06-01T10:32:34.210Z,27.94
2019-06-01T10:33:33.321Z,28.01
2019-06-01T11:07:06.034Z,28.95
2019-06-01T11:08:05.982Z,29.07
2019-06-01T11:10:05.990Z,29.16
2019-06-01T11:11:05.999Z,29.25
2019-06-01T11:12:05.978Z,29.30
2019-06-01T11:13:05.993Z,29.08
2019-06-01T11:15:06.004Z,28.54
2019-06-01T11:16:05.994Z,28.42
2019-06-01T11:17:05.996Z,28.14
2019-06-01T11:18:06.020Z,27.97
2019-06-01T11:21:06.018Z,27.62
2019-06-01T11:22:06.049Z,27.52
2019-06-01T11:23:06.008Z,27.60
2019-06-01T11:24:06.005Z,27.66
2019-06-01T11:26:06.003Z,27.40
2019-06-01T11:27:06.036Z,27.19
2019-06-01T11:28:06.016Z,26.97
2019-06-01T11:29:06.021Z,26.82
2019-06-01T11:31:06.017Z,26.52
2019-06-01T11:32:06.010Z,26.46
2019-06-01T11:33:06.019Z,26.49
2019-06-01T11:34:06.031Z,26.53
2019-06-01T11:37:06.124Z,26.28
2019-06-01T11:38:06.061Z,26.27
2019-06-01T11:39:06.043Z,26.26
2019-06-01T11:40:06.052Z,26.43
2019-06-01T11:42:06.069Z,26.80
2019-06-01T11:43:06.052Z,27.06
2019-06-01T11:44:06.058Z,27.30
2019-06-01T11:45:06.016Z,27.55
2019-06-01T11:48:06.009Z,27.87
2019-06-01T11:49:06.078Z,28.03
2019-06-01T11:50:06.069Z,28.19
2019-06-01T11:51:06.101Z,28.27
2019-06-01T11:53:06.078Z,28.46
2019-06-01T11:54:06.067Z,28.57
2019-06-01T11:55:06.082Z,28.70
2019-06-01T11:56:06.034Z,28.72
2019-06-01T11:59:06.115Z,28.94
2019-06-01T12:00:06.105Z,29.05
2019-06-01T12:01:06.118Z,29.04
2019-06-01T12:02:06.078Z,29.08
2019-06-01T12:05:06.089Z,28.81
2019-06-01T12:06:06.066Z,28.82
2019-06-01T12:07:16.933Z,28.87
2019-06-01T12:08:06.057Z,28.87
2019-06-01T12:10:06.096Z,29.07
2019-06-01T12:11:06.088Z,29.15
2019-06-01T12:12:06.080Z,29.25
2019-06-01T12:13:06.106Z,29.33
2019-06-01T12:16:06.088Z,29.40
2019-06-01T12:17:06.109Z,29.52
2019-06-01T12:18:06.109Z,29.62
2019-06-01T12:19:06.154Z,29.77
2019-06-01T12:21:06.101Z,29.97
2019-06-01T12:22:06.127Z,30.04
2019-06-01T12:23:06.104Z,30.13
2019-06-01T12:24:06.201Z,30.21
2019-06-01T12:26:06.125Z,30.35
2019-06-01T12:27:06.118Z,30.32
2019-06-01T12:28:06.124Z,30.19
2019-06-01T12:29:06.104Z,30.02
2019-06-01T12:31:06.129Z,29.35
2019-06-01T12:32:06.148Z,29.22
2019-06-01T12:33:06.139Z,29.18
2019-06-01T12:34:06.160Z,29.02
2019-06-01T12:36:06.153Z,28.84
2019-06-01T12:37:06.153Z,28.76
2019-06-01T12:38:07.070Z,28.67
2019-06-01T12:39:06.118Z,28.41
2019-06-01T12:41:06.119Z,28.05
2019-06-01T12:42:06.138Z,27.98
2019-06-01T12:43:06.138Z,28.04
2019-06-01T12:44:06.178Z,28.16
2019-06-01T12:46:07.745Z,28.44
2019-06-01T12:47:06.156Z,28.60
2019-06-01T12:48:06.152Z,28.74
2019-06-01T12:49:06.151Z,28.81
2019-06-01T12:51:06.162Z,28.87
2019-06-01T12:52:06.149Z,28.79
2019-06-01T12:53:06.168Z,28.73
2019-06-01T12:54:06.148Z,28.44
2019-06-01T12:56:06.178Z,28.39
2019-06-01T12:57:06.222Z,28.51
2019-06-01T12:58:06.161Z,28.54
2019-06-01T12:59:06.217Z,28.58
2019-06-01T13:01:06.194Z,28.63
2019-06-01T13:02:06.172Z,28.67
2019-06-01T13:03:07.801Z,28.46
2019-06-01T13:04:06.180Z,28.38
2019-06-01T13:06:06.209Z,28.55
2019-06-01T13:07:06.176Z,28.68
2019-06-01T13:08:06.185Z,28.71
2019-06-01T13:09:06.178Z,28.79
2019-06-01T13:11:06.182Z,28.89
2019-06-01T13:12:06.204Z,28.96
2019-06-01T13:13:06.205Z,29.01
2019-06-01T13:30:06.263Z,26.00
2019-06-01T13:31:06.217Z,25.90
2019-06-01T13:32:06.237Z,25.88
2019-06-01T13:33:06.252Z,25.93
2019-06-01T13:35:06.228Z,26.18
2019-06-01T13:36:06.254Z,26.35
2019-06-01T13:37:06.250Z,26.50
2019-06-01T13:38:12.216Z,26.69
2019-06-01T13:40:06.270Z,26.80
2019-06-01T13:41:06.295Z,26.92
2019-06-01T13:42:06.266Z,27.01
2019-06-01T13:43:06.266Z,27.11
2019-06-01T13:46:06.546Z,27.43
2019-06-01T13:47:06.339Z,27.56
2019-06-01T13:48:06.246Z,27.68
2019-06-01T13:49:06.234Z,27.77
2019-06-01T13:51:06.271Z,28.04
2019-06-01T13:52:06.296Z,28.11
2019-06-01T13:53:06.270Z,28.23
2019-06-01T13:54:06.273Z,28.34
2019-06-01T13:56:06.319Z,28.50
2019-06-01T13:57:06.273Z,28.47
2019-06-01T13:58:06.304Z,28.43
2019-06-01T13:59:06.314Z,28.33
2019-06-01T14:01:06.294Z,28.20
2019-06-01T14:02:06.292Z,28.19
2019-06-01T14:03:06.330Z,28.25
2019-06-01T14:04:06.313Z,28.35
2019-06-01T14:06:06.323Z,28.54
2019-06-01T14:07:06.291Z,28.60
2019-06-01T14:08:06.305Z,28.66
2019-06-01T14:09:06.294Z,28.69
2019-06-01T14:11:06.328Z,28.73
2019-06-01T14:12:06.315Z,28.73
2019-06-01T14:13:06.339Z,28.72
2019-06-01T14:14:06.313Z,28.71
2019-06-01T14:16:06.331Z,28.63
2019-06-01T14:17:06.302Z,28.63
2019-06-01T14:18:06.310Z,28.61
2019-06-01T14:19:07.126Z,28.58
2019-06-01T14:21:06.317Z,28.48
2019-06-01T14:22:06.320Z,28.49
2019-06-01T14:23:06.316Z,28.46
2019-06-01T14:24:06.448Z,28.43
2019-06-01T14:27:06.400Z,28.32
2019-06-01T14:28:06.336Z,28.25
2019-06-01T14:29:06.303Z,28.21
2019-06-01T14:30:06.341Z,28.20
2019-06-01T14:32:06.384Z,28.05
2019-06-01T14:33:06.663Z,28.00
2019-06-01T14:34:06.383Z,28.01
2019-06-01T14:35:06.365Z,28.02
2019-06-01T14:37:06.351Z,27.99
2019-06-01T14:38:06.340Z,27.91
2019-06-01T14:39:06.352Z,27.91
2019-06-01T14:40:06.367Z,27.83
2019-06-01T14:43:06.356Z,27.72
2019-06-01T14:44:06.406Z,27.66
2019-06-01T14:45:06.369Z,27.62
2019-06-01T14:46:06.352Z,27.58
2019-06-01T16:31:35.512Z,22.38
2019-06-01T16:32:39.224Z,22.38
2019-06-01T16:33:35.446Z,22.38
2019-06-01T16:34:35.443Z,22.38
2019-06-01T16:35:35.482Z,22.39
2019-06-01T16:36:35.438Z,22.37
2019-06-01T16:37:35.494Z,22.36
2019-06-01T16:38:35.429Z,22.32
2019-06-01T16:39:35.452Z,22.28
2019-06-01T16:40:35.466Z,22.25
2019-06-01T16:41:35.485Z,22.24
2019-06-01T16:42:35.436Z,22.20
2019-06-01T16:43:35.475Z,22.13
2019-06-01T16:44:35.455Z,22.11
2019-06-01T16:45:35.485Z,22.08
2019-06-01T16:46:35.524Z,22.04
2019-06-01T16:47:35.449Z,22.00
2019-06-01T16:48:35.495Z,21.95
2019-06-01T16:49:35.485Z,21.89
2019-06-01T16:50:35.471Z,21.85
2019-06-01T16:51:35.491Z,21.84
2019-06-01T16:52:35.476Z,21.85
2019-06-01T16:53:35.471Z,21.83
2019-06-01T16:54:35.462Z,21.79
2019-06-01T16:55:35.517Z,21.76
2019-06-01T16:56:35.734Z,21.69
2019-06-01T16:57:35.511Z,21.68
2019-06-01T16:58:35.493Z,21.66
2019-06-01T16:59:35.457Z,21.61
2019-06-01T17:00:35.471Z,21.56
2019-06-01T17:01:35.477Z,21.50
2019-06-01T17:02:35.542Z,21.42
2019-06-01T17:03:35.484Z,21.36
2019-06-01T17:04:35.496Z,21.33
2019-06-01T17:05:35.473Z,21.29
2019-06-01T17:06:35.480Z,21.24
2019-06-01T17:07:35.506Z,21.16
2019-06-01T17:08:35.519Z,21.12
2019-06-01T17:09:35.492Z,21.07
2019-06-01T17:10:35.461Z,21.02
2019-06-01T17:11:35.498Z,20.98
2019-06-01T17:12:35.516Z,20.92
2019-06-01T17:13:35.498Z,20.89
2019-06-01T17:14:35.488Z,20.86
2019-06-01T17:15:35.504Z,20.83
2019-06-01T17:16:35.498Z,20.79
2019-06-01T17:17:35.470Z,20.75
2019-06-01T17:18:35.848Z,20.72
2019-06-01T17:19:35.506Z,20.69
2019-06-01T17:20:35.505Z,20.64
2019-06-01T17:21:35.491Z,20.61
2019-06-01T17:22:35.508Z,20.55
2019-06-01T17:23:35.504Z,20.52
2019-06-01T17:24:35.515Z,20.48
2019-06-01T17:25:35.538Z,20.45
2019-06-01T17:26:35.503Z,20.40
2019-06-01T17:27:35.509Z,20.37
2019-06-01T17:28:35.498Z,20.33
2019-06-01T17:29:35.534Z,20.30
2019-06-01T17:30:35.541Z,20.27
2019-06-01T17:31:35.492Z,20.24
2019-06-01T17:32:35.526Z,20.22
2019-06-01T17:33:35.497Z,20.18
2019-06-01T17:34:35.540Z,20.17
2019-06-01T17:35:36.306Z,20.17
2019-06-01T17:36:35.480Z,20.14
2019-06-01T17:37:35.510Z,20.12
2019-06-01T17:38:35.512Z,20.09
2019-06-01T17:39:35.566Z,20.07
2019-06-01T17:40:38.522Z,20.04
2019-06-01T17:41:35.565Z,20.03
2019-06-01T17:42:35.526Z,20.01
2019-06-01T17:43:35.522Z,19.98
2019-06-01T17:44:35.613Z,19.96
2019-06-01T17:45:35.518Z,19.93
2019-06-01T17:46:52.275Z,19.91
2019-06-01T17:47:35.555Z,19.87
2019-06-01T17:48:35.559Z,19.85
2019-06-01T17:49:35.571Z,19.83
2019-06-01T17:50:35.522Z,19.81
2019-06-01T17:51:35.537Z,19.77
2019-06-01T17:52:35.601Z,19.76
2019-06-01T17:53:35.617Z,19.74
2019-06-01T17:54:35.567Z,19.72
2019-06-01T17:55:35.567Z,19.70
2019-06-01T17:56:35.547Z,19.67
2019-06-01T17:57:35.544Z,19.65
2019-06-01T17:58:35.593Z,19.64
2019-06-01T17:59:35.524Z,19.61
2019-06-01T18:00:35.555Z,19.59
2019-06-01T18:01:35.567Z,19.57
2019-06-01T18:02:35.572Z,19.52
2019-06-01T18:03:35.557Z,19.49
2019-06-01T18:04:35.560Z,19.47
2019-06-01T18:05:35.564Z,19.42
2019-06-01T18:06:35.593Z,19.41
2019-06-01T18:07:35.572Z,19.38
2019-06-01T18:08:35.574Z,19.36
2019-06-01T18:09:35.598Z,19.33
2019-06-01T18:10:35.631Z,19.31
2019-06-01T18:11:35.565Z,19.28
2019-06-01T18:12:35.590Z,19.29
2019-06-01T18:13:35.594Z,19.28
2019-06-01T18:14:35.569Z,19.25
2019-06-01T18:15:35.601Z,19.23
2019-06-01T18:16:35.609Z,19.22
2019-06-01T18:17:35.577Z,19.17
2019-06-01T18:18:35.611Z,19.14
2019-06-01T18:19:35.573Z,19.09
2019-06-01T18:20:35.585Z,19.08
2019-06-01T18:21:35.663Z,19.05
2019-06-01T18:22:35.607Z,19.04
2019-06-01T18:23:35.594Z,19.01
2019-06-01T18:24:35.593Z,18.97
2019-06-01T18:25:35.615Z,18.94
2019-06-01T18:26:35.588Z,18.93
2019-06-01T18:27:35.609Z,18.92
2019-06-01T18:28:35.607Z,18.89
2019-06-01T18:29:38.825Z,18.88
2019-06-01T18:30:35.639Z,18.85
2019-06-01T18:31:35.599Z,18.83
2019-06-01T18:32:35.759Z,18.79
2019-06-01T18:33:35.632Z,18.76
2019-06-01T18:34:35.588Z,18.72
2019-06-01T18:35:35.627Z,18.71
2019-06-01T18:36:35.602Z,18.67
2019-06-01T18:37:35.595Z,18.63
2019-06-01T18:38:35.671Z,18.61
2019-06-01T18:39:35.678Z,18.56
2019-06-01T18:40:35.618Z,18.52
2019-06-01T18:41:35.615Z,18.48
2019-06-01T18:42:35.636Z,18.42
2019-06-01T18:43:35.626Z,18.39
2019-06-01T18:44:35.675Z,18.36
2019-06-01T18:45:35.680Z,18.32
2019-06-01T18:46:35.645Z,18.31
2019-06-01T18:47:35.652Z,18.27
2019-06-01T18:48:35.618Z,18.22
2019-06-01T18:49:35.609Z,18.18
2019-06-01T18:50:35.687Z,18.14
2019-06-01T18:51:35.622Z,18.10
2019-06-01T18:52:35.649Z,18.06
2019-06-01T18:53:35.620Z,18.02
2019-06-01T18:54:35.655Z,17.99
2019-06-01T18:55:36.114Z,17.96
2019-06-01T18:56:35.634Z,17.92
2019-06-01T18:57:35.631Z,17.87
2019-06-01T18:58:35.629Z,17.84
2019-06-01T18:59:35.646Z,17.80
2019-06-01T19:00:39.299Z,17.76
2019-06-01T19:01:35.650Z,17.72
2019-06-01T19:02:35.662Z,17.68
2019-06-01T19:03:35.628Z,17.64
2019-06-01T19:04:35.647Z,17.61
2019-06-01T19:05:35.667Z,17.58
2019-06-01T19:06:35.660Z,17.54
2019-06-01T19:07:35.683Z,17.51
2019-06-01T19:08:35.694Z,17.47